Flight Track Log - Related Links

Times and Time Zones

All times are in EDT time to prevent confusion due to time zone crossing. See the DAL3926 flight status page for this flight to view local times or setup timezone preferences in your user account.

Time Position Orientation Groundspeed Altitude Reporting Facility
EDT Latitude Longitude Course Direction KTS MPH feet Rate Location/Type
Fri 01:04:23 PM 44.9056 -93.2375 340° North 158 182 2,300  Level FAA TRACON SMA TRACON (SMA)
Fri 01:04:43 PM 44.9236 -93.2469 340° North 185 213 3,100 2,850 Climbing FAA TRACON SMA TRACON (SMA)
Fri 01:05:03 PM 44.9406 -93.2458 North 197 227 4,200 3,150 Climbing FAA TRACON SMA TRACON (SMA)
Fri 01:05:23 PM 44.9569 -93.2386 17° North 200 230 5,200 2,550 Climbing FAA TRACON SMA TRACON (SMA)
Fri 01:05:43 PM 44.9792 -93.2278 19° North 217 250 5,900 1,950 Climbing FAA TRACON SMA TRACON (SMA)
Fri 01:06:03 PM 44.9989 -93.2181 19° North 235 270 6,500 2,100 Climbing FAA TRACON SMA TRACON (SMA)
Fri 01:06:43 PM 45.0467 -93.1919 21° North 272 313 8,000 2,300 Climbing FAA TRACON SMA TRACON (SMA)
Fri 01:07:03 PM 45.0692 -93.1797 21° North 281 323 8,800 2,488 Climbing FAA TRACON SMA TRACON (SMA)
Fri 01:07:24 PM 45.0914 -93.1678 21° North 279 321 9,700 2,488 Climbing FAA TRACON SMA TRACON (SMA)
Fri 01:07:44 PM 45.1192 -93.1528 21° North 280 322 10,500 1,846 Climbing FAA TRACON SMA TRACON (SMA)
Fri 01:08:03 PM 45.1425 -93.1397 22° Northeast 288 331 10,900 1,231 Climbing FAA TRACON SMA TRACON (SMA)
Fri 01:08:23 PM 45.1669 -93.1272 20° North 300 345 11,300 1,200 Climbing FAA TRACON SMA TRACON (SMA)
Fri 01:08:43 PM 45.1919 -93.1131 22° Northeast 312 359 11,700 1,350 Climbing FAA TRACON SMA TRACON (SMA)
Fri 01:09:03 PM 45.2242 -93.0944 22° Northeast 324 373 12,200 1,350 Climbing FAA TRACON SMA TRACON (SMA)
Fri 01:09:23 PM 45.2511 -93.0806 20° North 332 382 12,600 1,800 Climbing FAA TRACON SMA TRACON (SMA)
Fri 01:09:43 PM 45.2844 -93.0617 22° Northeast 336 387 13,400 2,100 Climbing FAA TRACON SMA TRACON (SMA)
Fri 01:10:03 PM 45.3111 -93.0475 20° North 334 384 14,000 1,800 Climbing FAA TRACON SMA TRACON (SMA)
Fri 01:10:23 PM 45.3378 -93.0325 22° Northeast 334 384 14,600 1,950 Climbing FAA TRACON SMA TRACON (SMA)
Fri 01:10:43 PM 45.3703 -93.0136 22° Northeast 331 381 15,300 1,650 Climbing FAA TRACON SMA TRACON (SMA)
Fri 01:11:03 PM 45.3978 -92.9997 20° North 335 386 15,700 1,350 Climbing FAA TRACON SMA TRACON (SMA)
Fri 01:11:23 PM 45.4247 -92.9847 21° North 338 389 16,200 1,463 Climbing FAA TRACON SMA TRACON (SMA)
Fri 01:11:44 PM 45.4589 -92.9664 21° North 341 392 16,700 1,200 Climbing FAA TRACON SMA TRACON (SMA)
Fri 01:12:03 PM 45.4864 -92.9519 20° North 343 395 17,000 462 Climbing FAA TRACON SMA TRACON (SMA)
Fri 01:12:23 PM 45.5147 -92.9356 22° Northeast 353 406 17,000  Level FAA TRACON SMA TRACON (SMA)
Fri 01:12:43 PM 45.5519 -92.9147 21° North 370 426 17,000  Level FAA TRACON SMA TRACON (SMA)
Fri 01:13:03 PM 45.5825 -92.8986 20° North 379 436 17,000  Level FAA TRACON SMA TRACON (SMA)
Fri 01:13:23 PM 45.6136 -92.8817 21° North 387 445 17,000  Level FAA TRACON SMA TRACON (SMA)
Fri 01:13:43 PM 45.6531 -92.8608 20° North 392 451 17,000  Level FAA TRACON SMA TRACON (SMA)
Fri 01:14:03 PM 45.6839 -92.8433 22° Northeast 391 450 17,000  Level FAA TRACON SMA TRACON (SMA)
Fri 01:14:23 PM 45.7156 -92.8261 21° North 392 451 17,000  Level FAA TRACON SMA TRACON (SMA)
Fri 01:14:43 PM 45.7539 -92.8031 23° Northeast 391 450 17,000  Level FAA TRACON SMA TRACON (SMA)
Fri 01:15:03 PM 45.7864 -92.7892 17° North 393 452 17,000  Level FAA TRACON SMA TRACON (SMA)
Fri 01:15:23 PM 45.8169 -92.7692 25° Northeast 392 451 17,000  Level FAA TRACON SMA TRACON (SMA)
Fri 01:15:43 PM 45.8333 -92.7633 14° North 393 452 17,000  Level FAA TRACON SMA TRACON (SMA)
Fri 01:16:26 PM 45.9092 -92.7147 24° Northeast 390 449 17,000  Level Minneapolis Center
Fri 01:17:28 PM 46.0106 -92.6567 22° Northeast 390 449 17,000 -871 Level Minneapolis Center
Fri 01:18:30 PM 46.1311 -92.5881 22° Northeast 390 449 15,200 -1,839 Descending Minneapolis Center
Fri 01:19:32 PM 46.2194 -92.5394 21° North 385 443 13,200 -1,790 Descending Minneapolis Center
Fri 01:20:34 PM 46.3169 -92.5097 12° North 367 422 11,500 -1,694 Descending Minneapolis Center
Fri 01:21:36 PM 46.4122 -92.5056 North 290 334 9,700 -1,805 Descending Minneapolis Center
Fri 01:22:37 PM 46.4881 -92.5042 North 276 318 7,800 -1,805 Descending Minneapolis Center
Fri 01:23:39 PM 46.5628 -92.5078 358° North 273 314 6,000 -1,742 Descending Minneapolis Center
Fri 01:24:41 PM 46.6336 -92.5194 354° North 266 306 4,200 -1,355 Descending Minneapolis Center
Fri 01:25:43 PM 46.6994 -92.5347 351° North 256 295 3,200 -484 Descending Minneapolis Center
Fri 01:26:45 PM 46.7642 -92.5461 353° North 245 282 3,200 49 Level Minneapolis Center
Fri 01:27:46 PM 46.8331 -92.5417 North 230 265 3,300  Climbing Minneapolis Center
Fri 01:28:48 PM 46.8508 -92.4761 68° East 195 224 3,200 -48 Descending Minneapolis Center
Fri 01:29:50 PM 46.8481 -92.4058 93° East 182 209 3,200  Level Minneapolis Center
Fri 01:30:52 PM 46.8458 -92.3433 93° East 169 194 3,200 -387 Level Minneapolis Center
Fri 01:31:54 PM 46.8442 -92.2903 93° East 153 176 2,400 -677 Descending Minneapolis Center
Fri 01:32:56 PM 46.8425 -92.2331 92° East 142 163 1,800 -581 Descending Minneapolis Center

Login

Don't have an account? Register now (free) for customized features, flight alerts, and more!